sensor_id;sensor_type;location;lat;lon;timestamp;temperature;humidity
61255;DHT22;47128;47.530;8.584;2023-02-22T00:00:48;3.70;99.90
61255;DHT22;47128;47.530;8.584;2023-02-22T00:03:15;3.70;99.90
61255;DHT22;47128;47.530;8.584;2023-02-22T00:05:42;3.70;99.90
61255;DHT22;47128;47.530;8.584;2023-02-22T00:08:13;3.70;99.90
61255;DHT22;47128;47.530;8.584;2023-02-22T00:10:40;3.60;99.90
61255;DHT22;47128;47.530;8.584;2023-02-22T00:13:06;3.60;99.90
61255;DHT22;47128;47.530;8.584;2023-02-22T00:15:32;3.60;99.90
61255;DHT22;47128;47.530;8.584;2023-02-22T00:17:59;3.60;99.90
61255;DHT22;47128;47.530;8.584;2023-02-22T00:20:26;3.50;99.90
61255;DHT22;47128;47.530;8.584;2023-02-22T00:22:53;3.50;99.90
61255;DHT22;47128;47.530;8.584;2023-02-22T00:25:20;3.50;99.90
61255;DHT22;47128;47.530;8.584;2023-02-22T00:27:46;3.50;99.90
61255;DHT22;47128;47.530;8.584;2023-02-22T00:30:13;3.60;99.90
61255;DHT22;47128;47.530;8.584;2023-02-22T00:32:39;3.60;99.90
61255;DHT22;47128;47.530;8.584;2023-02-22T00:35:04;3.60;99.90
61255;DHT22;47128;47.530;8.584;2023-02-22T00:37:32;3.60;99.90
61255;DHT22;47128;47.530;8.584;2023-02-22T00:39:59;3.60;99.90
61255;DHT22;47128;47.530;8.584;2023-02-22T00:42:25;3.60;99.90
61255;DHT22;47128;47.530;8.584;2023-02-22T00:44:51;3.60;99.90
61255;DHT22;47128;47.530;8.584;2023-02-22T00:47:17;3.60;99.90
61255;DHT22;47128;47.530;8.584;2023-02-22T00:49:42;3.60;99.90
61255;DHT22;47128;47.530;8.584;2023-02-22T00:52:07;3.50;99.90
61255;DHT22;47128;47.530;8.584;2023-02-22T00:54:33;3.40;99.90
61255;DHT22;47128;47.530;8.584;2023-02-22T00:56:59;3.30;99.90
61255;DHT22;47128;47.530;8.584;2023-02-22T00:59:25;3.30;99.90
61255;DHT22;47128;47.530;8.584;2023-02-22T01:01:51;3.30;99.90
61255;DHT22;47128;47.530;8.584;2023-02-22T01:04:17;3.30;99.90
61255;DHT22;47128;47.530;8.584;2023-02-22T01:06:43;3.20;99.90
61255;DHT22;47128;47.530;8.584;2023-02-22T01:09:08;3.20;99.90
61255;DHT22;47128;47.530;8.584;2023-02-22T01:11:34;3.10;99.90
61255;DHT22;47128;47.530;8.584;2023-02-22T01:13:59;3.10;99.90
61255;DHT22;47128;47.530;8.584;2023-02-22T01:16:25;3.10;99.90
61255;DHT22;47128;47.530;8.584;2023-02-22T01:18:50;3.10;99.90
61255;DHT22;47128;47.530;8.584;2023-02-22T01:21:16;3.20;99.90
61255;DHT22;47128;47.530;8.584;2023-02-22T01:23:45;3.10;99.90
61255;DHT22;47128;47.530;8.584;2023-02-22T01:26:10;3.10;99.90
61255;DHT22;47128;47.530;8.584;2023-02-22T01:28:37;2.90;99.90
61255;DHT22;47128;47.530;8.584;2023-02-22T01:31:02;2.90;99.90
61255;DHT22;47128;47.530;8.584;2023-02-22T01:33:28;2.90;99.90
61255;DHT22;47128;47.530;8.584;2023-02-22T01:35:53;2.90;99.90
61255;DHT22;47128;47.530;8.584;2023-02-22T01:38:19;2.90;99.90
61255;DHT22;47128;47.530;8.584;2023-02-22T01:40:48;3.00;99.90
61255;DHT22;47128;47.530;8.584;2023-02-22T01:45:44;2.90;99.90
61255;DHT22;47128;47.530;8.584;2023-02-22T01:48:20;3.00;99.90
61255;DHT22;47128;47.530;8.584;2023-02-22T01:51:30;3.00;99.90
61255;DHT22;47128;47.530;8.584;2023-02-22T01:53:40;3.00;99.90
61255;DHT22;47128;47.530;8.584;2023-02-22T01:56:07;3.00;99.90
61255;DHT22;47128;47.530;8.584;2023-02-22T01:58:34;3.00;99.90
61255;DHT22;47128;47.530;8.584;2023-02-22T02:01:01;3.00;99.90
61255;DHT22;47128;47.530;8.584;2023-02-22T02:03:31;3.00;99.90
61255;DHT22;47128;47.530;8.584;2023-02-22T02:05:58;2.90;99.90
61255;DHT22;47128;47.530;8.584;2023-02-22T02:08:59;2.90;99.90
61255;DHT22;47128;47.530;8.584;2023-02-22T02:11:18;2.90;99.90
61255;DHT22;47128;47.530;8.584;2023-02-22T02:13:44;2.90;99.90
61255;DHT22;47128;47.530;8.584;2023-02-22T02:16:09;3.00;99.90
61255;DHT22;47128;47.530;8.584;2023-02-22T02:18:34;3.00;99.90
61255;DHT22;47128;47.530;8.584;2023-02-22T02:21:08;2.90;99.90
61255;DHT22;47128;47.530;8.584;2023-02-22T02:36:20;3.00;99.90
61255;DHT22;47128;47.530;8.584;2023-02-22T02:39:00;2.90;99.90
61255;DHT22;47128;47.530;8.584;2023-02-22T02:41:34;2.90;99.90
61255;DHT22;47128;47.530;8.584;2023-02-22T02:44:04;2.80;99.90
61255;DHT22;47128;47.530;8.584;2023-02-22T02:46:54;2.80;99.90
61255;DHT22;47128;47.530;8.584;2023-02-22T02:49:32;2.70;99.90
61255;DHT22;47128;47.530;8.584;2023-02-22T02:51:59;2.60;99.90
61255;DHT22;47128;47.530;8.584;2023-02-22T02:54:27;2.50;99.90
61255;DHT22;47128;47.530;8.584;2023-02-22T02:56:52;2.50;99.90
61255;DHT22;47128;47.530;8.584;2023-02-22T02:59:37;2.50;99.90
61255;DHT22;47128;47.530;8.584;2023-02-22T03:17:27;2.60;99.90
61255;DHT22;47128;47.530;8.584;2023-02-22T03:19:58;2.60;99.90
61255;DHT22;47128;47.530;8.584;2023-02-22T03:22:27;2.50;99.90
61255;DHT22;47128;47.530;8.584;2023-02-22T03:25:14;2.40;99.90
61255;DHT22;47128;47.530;8.584;2023-02-22T03:30:09;2.30;99.90
61255;DHT22;47128;47.530;8.584;2023-02-22T03:32:36;2.20;99.90
61255;DHT22;47128;47.530;8.584;2023-02-22T03:35:07;2.20;99.90
61255;DHT22;47128;47.530;8.584;2023-02-22T03:37:34;2.20;99.90
61255;DHT22;47128;47.530;8.584;2023-02-22T03:40:02;2.30;99.90
61255;DHT22;47128;47.530;8.584;2023-02-22T03:42:38;2.40;99.90
61255;DHT22;47128;47.530;8.584;2023-02-22T03:45:05;2.40;99.90
61255;DHT22;47128;47.530;8.584;2023-02-22T03:47:41;2.30;99.90
61255;DHT22;47128;47.530;8.584;2023-02-22T03:50:08;2.20;99.90
61255;DHT22;47128;47.530;8.584;2023-02-22T03:52:35;2.20;99.90
61255;DHT22;47128;47.530;8.584;2023-02-22T03:55:01;2.20;99.90
61255;DHT22;47128;47.530;8.584;2023-02-22T03:57:28;2.10;99.90
61255;DHT22;47128;47.530;8.584;2023-02-22T03:59:54;2.10;99.90
61255;DHT22;47128;47.530;8.584;2023-02-22T04:02:20;2.10;99.90
61255;DHT22;47128;47.530;8.584;2023-02-22T04:04:47;2.20;99.90
61255;DHT22;47128;47.530;8.584;2023-02-22T04:07:13;2.20;99.90
61255;DHT22;47128;47.530;8.584;2023-02-22T04:09:38;2.20;99.90
61255;DHT22;47128;47.530;8.584;2023-02-22T04:12:04;2.20;99.90
61255;DHT22;47128;47.530;8.584;2023-02-22T04:14:30;2.20;99.90
61255;DHT22;47128;47.530;8.584;2023-02-22T04:16:55;2.20;99.90
61255;DHT22;47128;47.530;8.584;2023-02-22T04:19:21;2.20;99.90
61255;DHT22;47128;47.530;8.584;2023-02-22T04:21:46;2.20;99.90
61255;DHT22;47128;47.530;8.584;2023-02-22T04:24:12;2.20;99.90
61255;DHT22;47128;47.530;8.584;2023-02-22T04:26:37;2.30;99.90
61255;DHT22;47128;47.530;8.584;2023-02-22T04:29:03;2.30;99.90
61255;DHT22;47128;47.530;8.584;2023-02-22T04:31:29;2.40;99.90
61255;DHT22;47128;47.530;8.584;2023-02-22T04:33:54;2.40;99.90
61255;DHT22;47128;47.530;8.584;2023-02-22T04:36:20;2.30;99.90
61255;DHT22;47128;47.530;8.584;2023-02-22T04:38:46;2.40;99.90
61255;DHT22;47128;47.530;8.584;2023-02-22T04:41:11;2.40;99.90
61255;DHT22;47128;47.530;8.584;2023-02-22T04:43:36;2.40;99.90
61255;DHT22;47128;47.530;8.584;2023-02-22T04:46:02;2.30;99.90
61255;DHT22;47128;47.530;8.584;2023-02-22T04:48:28;2.40;99.90
61255;DHT22;47128;47.530;8.584;2023-02-22T04:50:54;2.40;99.90
61255;DHT22;47128;47.530;8.584;2023-02-22T04:53:20;2.50;99.90
61255;DHT22;47128;47.530;8.584;2023-02-22T04:55:45;2.40;99.90
61255;DHT22;47128;47.530;8.584;2023-02-22T04:58:11;2.50;99.90
61255;DHT22;47128;47.530;8.584;2023-02-22T05:00:36;2.50;99.90
61255;DHT22;47128;47.530;8.584;2023-02-22T05:03:02;2.40;99.90
61255;DHT22;47128;47.530;8.584;2023-02-22T05:05:28;2.40;99.90
61255;DHT22;47128;47.530;8.584;2023-02-22T05:07:53;2.50;99.90
61255;DHT22;47128;47.530;8.584;2023-02-22T05:10:19;2.50;99.90
61255;DHT22;47128;47.530;8.584;2023-02-22T05:12:44;2.50;99.90
61255;DHT22;47128;47.530;8.584;2023-02-22T05:15:13;2.50;99.90
61255;DHT22;47128;47.530;8.584;2023-02-22T05:17:40;2.40;99.90
61255;DHT22;47128;47.530;8.584;2023-02-22T05:20:05;2.40;99.90
61255;DHT22;47128;47.530;8.584;2023-02-22T05:22:33;2.40;99.90
61255;DHT22;47128;47.530;8.584;2023-02-22T05:24:58;2.30;99.90
61255;DHT22;47128;47.530;8.584;2023-02-22T05:27:24;2.30;99.90
61255;DHT22;47128;47.530;8.584;2023-02-22T05:29:50;2.30;99.90
61255;DHT22;47128;47.530;8.584;2023-02-22T05:32:15;2.20;99.90
61255;DHT22;47128;47.530;8.584;2023-02-22T05:34:42;2.10;99.90
61255;DHT22;47128;47.530;8.584;2023-02-22T05:37:07;2.10;99.90
61255;DHT22;47128;47.530;8.584;2023-02-22T05:39:34;2.10;99.90
61255;DHT22;47128;47.530;8.584;2023-02-22T05:42:00;2.20;99.90
61255;DHT22;47128;47.530;8.584;2023-02-22T05:44:25;2.20;99.90
61255;DHT22;47128;47.530;8.584;2023-02-22T05:46:52;2.20;99.90
61255;DHT22;47128;47.530;8.584;2023-02-22T05:49:17;2.20;99.90
61255;DHT22;47128;47.530;8.584;2023-02-22T05:51:43;2.10;99.90
61255;DHT22;47128;47.530;8.584;2023-02-22T05:54:09;2.10;99.90
61255;DHT22;47128;47.530;8.584;2023-02-22T05:56:34;2.20;99.90
61255;DHT22;47128;47.530;8.584;2023-02-22T05:59:00;2.20;99.90
61255;DHT22;47128;47.530;8.584;2023-02-22T06:01:26;2.20;99.90
61255;DHT22;47128;47.530;8.584;2023-02-22T06:09:58;2.10;99.90
61255;DHT22;47128;47.530;8.584;2023-02-22T06:12:24;2.20;99.90
61255;DHT22;47128;47.530;8.584;2023-02-22T06:17:53;2.20;99.90
61255;DHT22;47128;47.530;8.584;2023-02-22T06:20:20;2.20;99.90
61255;DHT22;47128;47.530;8.584;2023-02-22T06:22:47;2.30;99.90
61255;DHT22;47128;47.530;8.584;2023-02-22T06:25:14;2.30;99.90
61255;DHT22;47128;47.530;8.584;2023-02-22T06:27:40;2.30;99.90
61255;DHT22;47128;47.530;8.584;2023-02-22T06:30:06;2.30;99.90
61255;DHT22;47128;47.530;8.584;2023-02-22T06:32:32;2.20;99.90
61255;DHT22;47128;47.530;8.584;2023-02-22T06:35:02;2.10;99.90
61255;DHT22;47128;47.530;8.584;2023-02-22T06:37:28;2.20;99.90
61255;DHT22;47128;47.530;8.584;2023-02-22T06:40:07;2.20;99.90
61255;DHT22;47128;47.530;8.584;2023-02-22T06:45:38;2.30;99.90
61255;DHT22;47128;47.530;8.584;2023-02-22T06:51:07;2.50;99.90
61255;DHT22;47128;47.530;8.584;2023-02-22T06:56:36;2.50;99.90
61255;DHT22;47128;47.530;8.584;2023-02-22T07:02:05;2.60;99.90
61255;DHT22;47128;47.530;8.584;2023-02-22T07:19:43;3.10;99.90
61255;DHT22;47128;47.530;8.584;2023-02-22T07:28:23;3.10;99.90
61255;DHT22;47128;47.530;8.584;2023-02-22T07:30:49;3.20;99.90
61255;DHT22;47128;47.530;8.584;2023-02-22T07:33:15;3.30;99.90
61255;DHT22;47128;47.530;8.584;2023-02-22T07:35:45;3.30;99.90
61255;DHT22;47128;47.530;8.584;2023-02-22T07:38:12;3.30;99.90
61255;DHT22;47128;47.530;8.584;2023-02-22T07:40:38;3.30;99.90
61255;DHT22;47128;47.530;8.584;2023-02-22T07:43:13;3.30;99.90
61255;DHT22;47128;47.530;8.584;2023-02-22T07:45:40;3.40;99.90
61255;DHT22;47128;47.530;8.584;2023-02-22T07:48:06;3.40;99.90
61255;DHT22;47128;47.530;8.584;2023-02-22T07:50:32;3.40;99.90
61255;DHT22;47128;47.530;8.584;2023-02-22T07:52:59;3.40;99.90
61255;DHT22;47128;47.530;8.584;2023-02-22T07:55:25;3.40;99.90
61255;DHT22;47128;47.530;8.584;2023-02-22T07:57:52;3.40;99.90
61255;DHT22;47128;47.530;8.584;2023-02-22T08:00:37;3.50;99.90
61255;DHT22;47128;47.530;8.584;2023-02-22T08:05:38;3.60;99.90
61255;DHT22;47128;47.530;8.584;2023-02-22T08:08:07;3.60;99.90
61255;DHT22;47128;47.530;8.584;2023-02-22T08:10:50;3.80;99.90
61255;DHT22;47128;47.530;8.584;2023-02-22T08:16:38;4.00;99.90
61255;DHT22;47128;47.530;8.584;2023-02-22T08:25:07;4.40;99.90
61255;DHT22;47128;47.530;8.584;2023-02-22T08:36:42;4.70;99.90
61255;DHT22;47128;47.530;8.584;2023-02-22T08:39:08;4.80;99.90
61255;DHT22;47128;47.530;8.584;2023-02-22T08:41:36;4.90;99.90
61255;DHT22;47128;47.530;8.584;2023-02-22T08:46:33;4.90;99.90
61255;DHT22;47128;47.530;8.584;2023-02-22T08:52:02;4.90;99.90
61255;DHT22;47128;47.530;8.584;2023-02-22T09:00:37;4.90;99.90
61255;DHT22;47128;47.530;8.584;2023-02-22T09:05:48;5.20;99.90
61255;DHT22;47128;47.530;8.584;2023-02-22T09:08:14;5.30;99.90
61255;DHT22;47128;47.530;8.584;2023-02-22T09:10:40;5.40;99.90
61255;DHT22;47128;47.530;8.584;2023-02-22T09:13:06;5.50;99.90
61255;DHT22;47128;47.530;8.584;2023-02-22T09:15:33;5.60;99.90
61255;DHT22;47128;47.530;8.584;2023-02-22T09:18:01;5.80;99.90
61255;DHT22;47128;47.530;8.584;2023-02-22T09:20:28;6.10;99.90
61255;DHT22;47128;47.530;8.584;2023-02-22T09:29:15;10.60;95.50
61255;DHT22;47128;47.530;8.584;2023-02-22T09:37:47;13.20;92.60
61255;DHT22;47128;47.530;8.584;2023-02-22T09:51:47;10.40;94.00
61255;DHT22;47128;47.530;8.584;2023-02-22T09:54:36;10.90;93.60
61255;DHT22;47128;47.530;8.584;2023-02-22T09:57:01;11.40;92.70
61255;DHT22;47128;47.530;8.584;2023-02-22T10:02:32;12.60;91.10
61255;DHT22;47128;47.530;8.584;2023-02-22T10:05:21;12.50;90.80
61255;DHT22;47128;47.530;8.584;2023-02-22T10:07:58;12.70;90.80
61255;DHT22;47128;47.530;8.584;2023-02-22T10:10:25;12.80;90.50
61255;DHT22;47128;47.530;8.584;2023-02-22T10:15:28;14.20;87.10
61255;DHT22;47128;47.530;8.584;2023-02-22T10:20:31;16.10;81.70
61255;DHT22;47128;47.530;8.584;2023-02-22T10:25:34;17.70;76.60
61255;DHT22;47128;47.530;8.584;2023-02-22T10:28:22;19.10;74.00
61255;DHT22;47128;47.530;8.584;2023-02-22T10:30:53;20.00;70.90
61255;DHT22;47128;47.530;8.584;2023-02-22T10:33:23;20.00;68.20
61255;DHT22;47128;47.530;8.584;2023-02-22T10:35:51;19.80;67.50
61255;DHT22;47128;47.530;8.584;2023-02-22T10:44:05;18.80;67.30
61255;DHT22;47128;47.530;8.584;2023-02-22T10:46:30;18.10;68.60
61255;DHT22;47128;47.530;8.584;2023-02-22T10:49:01;18.40;68.50
61255;DHT22;47128;47.530;8.584;2023-02-22T10:51:29;18.40;68.10
61255;DHT22;47128;47.530;8.584;2023-02-22T10:53:58;18.70;66.40
61255;DHT22;47128;47.530;8.584;2023-02-22T10:56:24;18.60;66.40
61255;DHT22;47128;47.530;8.584;2023-02-22T11:13:54;18.50;64.50
61255;DHT22;47128;47.530;8.584;2023-02-22T11:19:23;16.90;68.30
61255;DHT22;47128;47.530;8.584;2023-02-22T11:21:55;17.00;68.30
61255;DHT22;47128;47.530;8.584;2023-02-22T11:24:21;17.20;68.00
61255;DHT22;47128;47.530;8.584;2023-02-22T11:26:58;17.80;67.50
61255;DHT22;47128;47.530;8.584;2023-02-22T11:35:39;21.00;62.60
61255;DHT22;47128;47.530;8.584;2023-02-22T11:41:45;20.80;62.20
61255;DHT22;47128;47.530;8.584;2023-02-22T11:59:31;21.70;60.80
61255;DHT22;47128;47.530;8.584;2023-02-22T12:19:48;24.90;54.90
61255;DHT22;47128;47.530;8.584;2023-02-22T12:43:45;23.50;56.00
61255;DHT22;47128;47.530;8.584;2023-02-22T12:46:16;22.90;55.50
61255;DHT22;47128;47.530;8.584;2023-02-22T12:48:54;22.70;55.90
61255;DHT22;47128;47.530;8.584;2023-02-22T12:51:26;22.50;56.00
61255;DHT22;47128;47.530;8.584;2023-02-22T12:54:09;22.60;55.20
61255;DHT22;47128;47.530;8.584;2023-02-22T13:02:44;23.00;54.60
61255;DHT22;47128;47.530;8.584;2023-02-22T13:05:15;23.00;54.40
61255;DHT22;47128;47.530;8.584;2023-02-22T13:15:18;18.90;59.30
61255;DHT22;47128;47.530;8.584;2023-02-22T13:26:12;17.20;63.80
61255;DHT22;47128;47.530;8.584;2023-02-22T13:39:58;17.30;65.00
61255;DHT22;47128;47.530;8.584;2023-02-22T13:57:03;17.20;65.50
61255;DHT22;47128;47.530;8.584;2023-02-22T14:00:19;17.10;66.20
61255;DHT22;47128;47.530;8.584;2023-02-22T14:11:01;16.30;67.90
61255;DHT22;47128;47.530;8.584;2023-02-22T14:13:30;16.40;68.00
61255;DHT22;47128;47.530;8.584;2023-02-22T14:19:15;16.30;67.60
61255;DHT22;47128;47.530;8.584;2023-02-22T14:21:20;16.10;67.60
61255;DHT22;47128;47.530;8.584;2023-02-22T14:27:04;15.80;73.60
61255;DHT22;47128;47.530;8.584;2023-02-22T14:32:33;15.80;77.60
61255;DHT22;47128;47.530;8.584;2023-02-22T14:35:05;15.80;83.60
61255;DHT22;47128;47.530;8.584;2023-02-22T14:43:43;15.50;70.40
61255;DHT22;47128;47.530;8.584;2023-02-22T14:46:10;15.30;71.10
61255;DHT22;47128;47.530;8.584;2023-02-22T14:48:39;15.10;71.90
61255;DHT22;47128;47.530;8.584;2023-02-22T15:04:52;14.70;73.70
61255;DHT22;47128;47.530;8.584;2023-02-22T15:15:58;14.50;76.40
61255;DHT22;47128;47.530;8.584;2023-02-22T15:24:31;14.20;78.30
61255;DHT22;47128;47.530;8.584;2023-02-22T15:30:00;14.20;79.30
61255;DHT22;47128;47.530;8.584;2023-02-22T15:35:33;14.20;80.10
61255;DHT22;47128;47.530;8.584;2023-02-22T15:37:59;14.30;80.10
61255;DHT22;47128;47.530;8.584;2023-02-22T15:40:26;14.20;80.10
61255;DHT22;47128;47.530;8.584;2023-02-22T15:43:01;14.30;80.90
61255;DHT22;47128;47.530;8.584;2023-02-22T15:45:27;14.10;81.00
61255;DHT22;47128;47.530;8.584;2023-02-22T15:47:53;14.00;81.60
61255;DHT22;47128;47.530;8.584;2023-02-22T15:52:54;14.00;82.70
61255;DHT22;47128;47.530;8.584;2023-02-22T15:55:32;13.80;83.20
61255;DHT22;47128;47.530;8.584;2023-02-22T15:57:59;13.70;83.80
61255;DHT22;47128;47.530;8.584;2023-02-22T16:00:27;13.70;84.00
61255;DHT22;47128;47.530;8.584;2023-02-22T16:03:14;13.60;84.70
61255;DHT22;47128;47.530;8.584;2023-02-22T16:05:45;13.50;85.20
61255;DHT22;47128;47.530;8.584;2023-02-22T16:11:25;13.40;86.50
61255;DHT22;47128;47.530;8.584;2023-02-22T16:17:21;13.30;87.40
61255;DHT22;47128;47.530;8.584;2023-02-22T16:23:25;13.20;99.40
61255;DHT22;47128;47.530;8.584;2023-02-22T16:31:50;12.90;91.00
61255;DHT22;47128;47.530;8.584;2023-02-22T16:34:16;12.80;91.70
61255;DHT22;47128;47.530;8.584;2023-02-22T16:36:45;12.60;92.10
61255;DHT22;47128;47.530;8.584;2023-02-22T16:45:03;12.30;93.80
61255;DHT22;47128;47.530;8.584;2023-02-22T16:47:29;12.40;93.70
61255;DHT22;47128;47.530;8.584;2023-02-22T16:49:54;12.30;94.70
61255;DHT22;47128;47.530;8.584;2023-02-22T16:52:21;12.00;95.70
61255;DHT22;47128;47.530;8.584;2023-02-22T16:58:00;11.90;96.20
61255;DHT22;47128;47.530;8.584;2023-02-22T17:05:56;11.50;98.10
61255;DHT22;47128;47.530;8.584;2023-02-22T17:08:21;11.50;98.90
61255;DHT22;47128;47.530;8.584;2023-02-22T17:10:47;11.30;99.30
61255;DHT22;47128;47.530;8.584;2023-02-22T17:13:17;11.30;99.90
61255;DHT22;47128;47.530;8.584;2023-02-22T17:15:44;11.20;99.90
61255;DHT22;47128;47.530;8.584;2023-02-22T17:18:11;11.10;99.90
61255;DHT22;47128;47.530;8.584;2023-02-22T17:20:38;11.00;99.90
61255;DHT22;47128;47.530;8.584;2023-02-22T17:23:05;11.00;99.90
61255;DHT22;47128;47.530;8.584;2023-02-22T17:27:58;10.90;99.90
61255;DHT22;47128;47.530;8.584;2023-02-22T17:30:24;10.90;99.90
61255;DHT22;47128;47.530;8.584;2023-02-22T17:32:50;10.90;99.90
61255;DHT22;47128;47.530;8.584;2023-02-22T17:35:16;10.80;99.90
61255;DHT22;47128;47.530;8.584;2023-02-22T17:37:44;10.80;99.90
61255;DHT22;47128;47.530;8.584;2023-02-22T17:40:10;10.70;99.90
61255;DHT22;47128;47.530;8.584;2023-02-22T17:42:39;10.70;99.90
61255;DHT22;47128;47.530;8.584;2023-02-22T17:45:05;10.60;99.90
61255;DHT22;47128;47.530;8.584;2023-02-22T17:47:30;10.60;99.90
61255;DHT22;47128;47.530;8.584;2023-02-22T17:49:56;10.60;99.90
61255;DHT22;47128;47.530;8.584;2023-02-22T17:52:22;10.50;99.90
61255;DHT22;47128;47.530;8.584;2023-02-22T17:54:48;10.50;99.90
61255;DHT22;47128;47.530;8.584;2023-02-22T17:57:13;10.40;99.90
61255;DHT22;47128;47.530;8.584;2023-02-22T17:59:39;10.40;99.90
61255;DHT22;47128;47.530;8.584;2023-02-22T18:02:05;10.30;99.90
61255;DHT22;47128;47.530;8.584;2023-02-22T18:04:32;10.30;99.90
61255;DHT22;47128;47.530;8.584;2023-02-22T18:06:58;10.30;99.90
61255;DHT22;47128;47.530;8.584;2023-02-22T18:09:23;10.30;99.90
61255;DHT22;47128;47.530;8.584;2023-02-22T18:11:48;10.40;99.90
61255;DHT22;47128;47.530;8.584;2023-02-22T18:14:14;10.40;99.90
61255;DHT22;47128;47.530;8.584;2023-02-22T18:16:40;10.30;99.90
61255;DHT22;47128;47.530;8.584;2023-02-22T18:19:05;10.30;99.90
61255;DHT22;47128;47.530;8.584;2023-02-22T18:21:31;10.20;99.90
61255;DHT22;47128;47.530;8.584;2023-02-22T18:23:57;10.20;99.90
61255;DHT22;47128;47.530;8.584;2023-02-22T18:26:23;10.20;99.90
61255;DHT22;47128;47.530;8.584;2023-02-22T18:28:49;10.20;99.90
61255;DHT22;47128;47.530;8.584;2023-02-22T18:31:16;10.30;99.90
61255;DHT22;47128;47.530;8.584;2023-02-22T18:33:43;10.30;99.90
61255;DHT22;47128;47.530;8.584;2023-02-22T18:36:09;10.30;99.90
61255;DHT22;47128;47.530;8.584;2023-02-22T18:38:39;10.20;99.90
61255;DHT22;47128;47.530;8.584;2023-02-22T18:41:15;10.20;99.90
61255;DHT22;47128;47.530;8.584;2023-02-22T18:43:41;10.20;99.90
61255;DHT22;47128;47.530;8.584;2023-02-22T18:48:33;10.30;99.90
61255;DHT22;47128;47.530;8.584;2023-02-22T18:50:59;10.30;99.90
61255;DHT22;47128;47.530;8.584;2023-02-22T18:53:28;10.20;99.90
61255;DHT22;47128;47.530;8.584;2023-02-22T18:55:53;10.20;99.90
61255;DHT22;47128;47.530;8.584;2023-02-22T18:58:19;10.20;99.90
61255;DHT22;47128;47.530;8.584;2023-02-22T19:00:44;10.20;99.90
61255;DHT22;47128;47.530;8.584;2023-02-22T19:03:12;10.20;99.90
61255;DHT22;47128;47.530;8.584;2023-02-22T19:05:37;10.30;99.90
61255;DHT22;47128;47.530;8.584;2023-02-22T19:08:02;10.30;99.90
61255;DHT22;47128;47.530;8.584;2023-02-22T19:10:28;10.20;99.90
61255;DHT22;47128;47.530;8.584;2023-02-22T19:12:54;10.20;99.90
61255;DHT22;47128;47.530;8.584;2023-02-22T19:15:19;10.20;99.90
61255;DHT22;47128;47.530;8.584;2023-02-22T19:17:45;10.30;99.90
61255;DHT22;47128;47.530;8.584;2023-02-22T19:20:11;10.20;99.90
61255;DHT22;47128;47.530;8.584;2023-02-22T19:22:36;10.20;99.90
61255;DHT22;47128;47.530;8.584;2023-02-22T19:25:02;10.20;99.90
61255;DHT22;47128;47.530;8.584;2023-02-22T19:27:28;10.20;99.90
61255;DHT22;47128;47.530;8.584;2023-02-22T19:29:55;10.20;99.90
61255;DHT22;47128;47.530;8.584;2023-02-22T19:32:21;10.20;99.90
61255;DHT22;47128;47.530;8.584;2023-02-22T19:34:51;10.20;99.90
61255;DHT22;47128;47.530;8.584;2023-02-22T19:37:30;10.20;99.90
61255;DHT22;47128;47.530;8.584;2023-02-22T19:40:00;10.30;99.90
61255;DHT22;47128;47.530;8.584;2023-02-22T19:42:26;10.30;99.90
61255;DHT22;47128;47.530;8.584;2023-02-22T19:44:51;10.30;99.90
61255;DHT22;47128;47.530;8.584;2023-02-22T19:47:18;10.20;99.90
61255;DHT22;47128;47.530;8.584;2023-02-22T19:49:43;10.20;99.90
61255;DHT22;47128;47.530;8.584;2023-02-22T19:52:09;10.20;99.90
61255;DHT22;47128;47.530;8.584;2023-02-22T19:54:34;10.20;99.90
61255;DHT22;47128;47.530;8.584;2023-02-22T19:57:00;10.20;99.90
61255;DHT22;47128;47.530;8.584;2023-02-22T19:59:27;10.20;99.90
61255;DHT22;47128;47.530;8.584;2023-02-22T20:01:53;10.20;99.90
61255;DHT22;47128;47.530;8.584;2023-02-22T20:04:19;10.10;99.90
61255;DHT22;47128;47.530;8.584;2023-02-22T20:06:49;10.10;99.90
61255;DHT22;47128;47.530;8.584;2023-02-22T20:09:19;10.10;99.90
61255;DHT22;47128;47.530;8.584;2023-02-22T20:11:45;10.10;99.90
61255;DHT22;47128;47.530;8.584;2023-02-22T20:14:15;10.00;99.90
61255;DHT22;47128;47.530;8.584;2023-02-22T20:16:41;10.00;99.90
61255;DHT22;47128;47.530;8.584;2023-02-22T20:19:07;10.00;99.90
61255;DHT22;47128;47.530;8.584;2023-02-22T20:21:32;9.90;99.90
61255;DHT22;47128;47.530;8.584;2023-02-22T20:23:58;9.90;99.90
61255;DHT22;47128;47.530;8.584;2023-02-22T20:26:26;9.80;99.90
61255;DHT22;47128;47.530;8.584;2023-02-22T20:28:52;9.80;99.90
61255;DHT22;47128;47.530;8.584;2023-02-22T20:31:17;9.90;99.90
61255;DHT22;47128;47.530;8.584;2023-02-22T20:33:44;9.80;99.90
61255;DHT22;47128;47.530;8.584;2023-02-22T20:36:11;9.80;99.90
61255;DHT22;47128;47.530;8.584;2023-02-22T20:38:37;9.80;99.90
61255;DHT22;47128;47.530;8.584;2023-02-22T20:41:06;9.80;99.90
61255;DHT22;47128;47.530;8.584;2023-02-22T20:43:32;9.70;99.90
61255;DHT22;47128;47.530;8.584;2023-02-22T20:46:04;9.70;99.90
61255;DHT22;47128;47.530;8.584;2023-02-22T20:48:29;9.70;99.90
61255;DHT22;47128;47.530;8.584;2023-02-22T20:50:55;9.70;99.90
61255;DHT22;47128;47.530;8.584;2023-02-22T20:53:21;9.70;99.90
61255;DHT22;47128;47.530;8.584;2023-02-22T20:55:50;9.70;99.90
61255;DHT22;47128;47.530;8.584;2023-02-22T20:58:16;9.80;99.90
61255;DHT22;47128;47.530;8.584;2023-02-22T21:00:44;9.80;99.90
61255;DHT22;47128;47.530;8.584;2023-02-22T21:03:09;9.80;99.90
61255;DHT22;47128;47.530;8.584;2023-02-22T21:05:39;9.80;99.90
61255;DHT22;47128;47.530;8.584;2023-02-22T21:08:05;9.70;99.90
61255;DHT22;47128;47.530;8.584;2023-02-22T21:10:33;9.70;99.90
61255;DHT22;47128;47.530;8.584;2023-02-22T21:12:59;9.80;99.90
61255;DHT22;47128;47.530;8.584;2023-02-22T21:15:25;9.80;99.90
61255;DHT22;47128;47.530;8.584;2023-02-22T21:17:50;9.80;99.90
61255;DHT22;47128;47.530;8.584;2023-02-22T21:20:18;9.80;99.90
61255;DHT22;47128;47.530;8.584;2023-02-22T21:22:46;9.80;99.90
61255;DHT22;47128;47.530;8.584;2023-02-22T21:25:14;9.80;99.90
61255;DHT22;47128;47.530;8.584;2023-02-22T21:27:40;9.70;99.90
61255;DHT22;47128;47.530;8.584;2023-02-22T21:30:06;9.70;99.90
61255;DHT22;47128;47.530;8.584;2023-02-22T21:32:32;9.70;99.90
61255;DHT22;47128;47.530;8.584;2023-02-22T21:34:57;9.70;99.90
61255;DHT22;47128;47.530;8.584;2023-02-22T21:37:23;9.70;99.90
61255;DHT22;47128;47.530;8.584;2023-02-22T21:39:48;9.70;99.90
61255;DHT22;47128;47.530;8.584;2023-02-22T21:42:14;9.70;99.90
61255;DHT22;47128;47.530;8.584;2023-02-22T21:44:39;9.70;99.90
61255;DHT22;47128;47.530;8.584;2023-02-22T21:47:05;9.70;99.90
61255;DHT22;47128;47.530;8.584;2023-02-22T21:49:30;9.70;99.90
61255;DHT22;47128;47.530;8.584;2023-02-22T21:51:56;9.70;99.90
61255;DHT22;47128;47.530;8.584;2023-02-22T21:54:21;9.70;99.90
61255;DHT22;47128;47.530;8.584;2023-02-22T21:56:47;9.70;99.90
61255;DHT22;47128;47.530;8.584;2023-02-22T21:59:14;9.70;99.90
61255;DHT22;47128;47.530;8.584;2023-02-22T22:01:44;9.70;99.90